sensor_id;sensor_type;location;lat;lon;timestamp;P1;durP1;ratioP1;P2;durP2;ratioP2
2191;SDS011;1102;49.718;11.902;2022-07-30T00:00:47;8.43;;;7.57;;
2191;SDS011;1102;49.718;11.902;2022-07-30T00:03:14;8.53;;;7.87;;
2191;SDS011;1102;49.718;11.902;2022-07-30T00:05:40;6.93;;;6.43;;
2191;SDS011;1102;49.718;11.902;2022-07-30T00:08:07;8.60;;;7.90;;
2191;SDS011;1102;49.718;11.902;2022-07-30T00:10:34;9.03;;;6.90;;
2191;SDS011;1102;49.718;11.902;2022-07-30T00:13:00;7.07;;;6.57;;
2191;SDS011;1102;49.718;11.902;2022-07-30T00:15:27;6.57;;;6.17;;
2191;SDS011;1102;49.718;11.902;2022-07-30T00:17:54;6.53;;;6.03;;
2191;SDS011;1102;49.718;11.902;2022-07-30T00:20:21;7.23;;;6.73;;
2191;SDS011;1102;49.718;11.902;2022-07-30T00:22:53;7.43;;;6.83;;
2191;SDS011;1102;49.718;11.902;2022-07-30T00:25:19;10.27;;;9.27;;
2191;SDS011;1102;49.718;11.902;2022-07-30T00:27:46;8.90;;;7.20;;
2191;SDS011;1102;49.718;11.902;2022-07-30T00:30:13;9.27;;;8.47;;
2191;SDS011;1102;49.718;11.902;2022-07-30T00:32:41;8.00;;;7.20;;
2191;SDS011;1102;49.718;11.902;2022-07-30T00:35:08;8.33;;;7.17;;
2191;SDS011;1102;49.718;11.902;2022-07-30T00:37:36;8.97;;;8.30;;
2191;SDS011;1102;49.718;11.902;2022-07-30T00:40:03;8.77;;;8.07;;
2191;SDS011;1102;49.718;11.902;2022-07-30T00:45:09;9.87;;;9.00;;
2191;SDS011;1102;49.718;11.902;2022-07-30T00:47:36;8.90;;;8.10;;
2191;SDS011;1102;49.718;11.902;2022-07-30T00:50:04;7.37;;;6.67;;
2191;SDS011;1102;49.718;11.902;2022-07-30T00:52:33;8.67;;;7.87;;
2191;SDS011;1102;49.718;11.902;2022-07-30T00:55:00;9.70;;;8.80;;
2191;SDS011;1102;49.718;11.902;2022-07-30T00:57:27;8.93;;;8.20;;
2191;SDS011;1102;49.718;11.902;2022-07-30T00:59:54;8.70;;;7.53;;
2191;SDS011;1102;49.718;11.902;2022-07-30T01:02:21;7.30;;;6.70;;
2191;SDS011;1102;49.718;11.902;2022-07-30T01:04:47;8.30;;;7.70;;
2191;SDS011;1102;49.718;11.902;2022-07-30T01:07:17;9.20;;;8.37;;
2191;SDS011;1102;49.718;11.902;2022-07-30T01:09:44;8.43;;;7.73;;
2191;SDS011;1102;49.718;11.902;2022-07-30T01:12:14;9.33;;;8.37;;
2191;SDS011;1102;49.718;11.902;2022-07-30T01:14:44;8.90;;;8.00;;
2191;SDS011;1102;49.718;11.902;2022-07-30T01:17:11;8.23;;;7.43;;
2191;SDS011;1102;49.718;11.902;2022-07-30T01:19:39;8.47;;;7.40;;
2191;SDS011;1102;49.718;11.902;2022-07-30T01:22:34;8.40;;;7.70;;
2191;SDS011;1102;49.718;11.902;2022-07-30T01:28:09;7.30;;;6.70;;
2191;SDS011;1102;49.718;11.902;2022-07-30T01:30:43;7.17;;;6.57;;
2191;SDS011;1102;49.718;11.902;2022-07-30T01:33:15;8.37;;;7.70;;
2191;SDS011;1102;49.718;11.902;2022-07-30T01:35:45;8.77;;;8.13;;
2191;SDS011;1102;49.718;11.902;2022-07-30T01:38:13;10.20;;;9.20;;
2191;SDS011;1102;49.718;11.902;2022-07-30T01:40:45;8.33;;;7.63;;
2191;SDS011;1102;49.718;11.902;2022-07-30T01:43:13;8.57;;;7.77;;
2191;SDS011;1102;49.718;11.902;2022-07-30T01:45:41;9.37;;;6.90;;
2191;SDS011;1102;49.718;11.902;2022-07-30T01:48:10;13.37;;;9.07;;
2191;SDS011;1102;49.718;11.902;2022-07-30T01:50:40;17.63;;;9.50;;
2191;SDS011;1102;49.718;11.902;2022-07-30T01:53:15;10.73;;;9.60;;
2191;SDS011;1102;49.718;11.902;2022-07-30T01:55:44;12.90;;;8.60;;
2191;SDS011;1102;49.718;11.902;2022-07-30T01:58:13;10.37;;;9.33;;
2191;SDS011;1102;49.718;11.902;2022-07-30T02:00:44;9.40;;;8.60;;
2191;SDS011;1102;49.718;11.902;2022-07-30T02:03:14;11.87;;;9.13;;
2191;SDS011;1102;49.718;11.902;2022-07-30T02:05:44;10.37;;;9.33;;
2191;SDS011;1102;49.718;11.902;2022-07-30T02:08:39;10.07;;;9.07;;
2191;SDS011;1102;49.718;11.902;2022-07-30T02:11:09;10.00;;;9.00;;
2191;SDS011;1102;49.718;11.902;2022-07-30T02:13:44;9.10;;;8.37;;
2191;SDS011;1102;49.718;11.902;2022-07-30T02:16:26;9.03;;;8.43;;
2191;SDS011;1102;49.718;11.902;2022-07-30T02:19:07;12.77;;;11.00;;
2191;SDS011;1102;49.718;11.902;2022-07-30T02:21:40;15.57;;;14.10;;
2191;SDS011;1102;49.718;11.902;2022-07-30T02:24:18;16.93;;;15.20;;
2191;SDS011;1102;49.718;11.902;2022-07-30T02:26:48;24.00;;;15.27;;
2191;SDS011;1102;49.718;11.902;2022-07-30T02:29:17;18.93;;;17.10;;
2191;SDS011;1102;49.718;11.902;2022-07-30T02:31:45;18.37;;;16.57;;
2191;SDS011;1102;49.718;11.902;2022-07-30T02:34:13;18.13;;;16.37;;
2191;SDS011;1102;49.718;11.902;2022-07-30T02:36:44;18.50;;;16.60;;
2191;SDS011;1102;49.718;11.902;2022-07-30T02:39:12;23.73;;;19.10;;
2191;SDS011;1102;49.718;11.902;2022-07-30T02:41:41;18.67;;;16.77;;
2191;SDS011;1102;49.718;11.902;2022-07-30T02:44:15;18.67;;;16.87;;
2191;SDS011;1102;49.718;11.902;2022-07-30T02:46:45;19.57;;;17.67;;
2191;SDS011;1102;49.718;11.902;2022-07-30T02:49:32;17.87;;;16.17;;
2191;SDS011;1102;49.718;11.902;2022-07-30T02:52:02;18.70;;;16.97;;
2191;SDS011;1102;49.718;11.902;2022-07-30T02:54:30;17.93;;;16.17;;
2191;SDS011;1102;49.718;11.902;2022-07-30T02:56:58;19.90;;;17.80;;
2191;SDS011;1102;49.718;11.902;2022-07-30T02:59:28;17.17;;;15.70;;
2191;SDS011;1102;49.718;11.902;2022-07-30T03:01:56;15.50;;;14.10;;
2191;SDS011;1102;49.718;11.902;2022-07-30T03:04:26;17.90;;;16.30;;
2191;SDS011;1102;49.718;11.902;2022-07-30T03:06:54;18.07;;;15.33;;
2191;SDS011;1102;49.718;11.902;2022-07-30T03:09:21;15.53;;;14.23;;
2191;SDS011;1102;49.718;11.902;2022-07-30T03:11:50;16.43;;;14.90;;
2191;SDS011;1102;49.718;11.902;2022-07-30T03:14:18;15.43;;;14.03;;
2191;SDS011;1102;49.718;11.902;2022-07-30T03:16:47;15.13;;;13.73;;
2191;SDS011;1102;49.718;11.902;2022-07-30T03:19:17;14.67;;;13.40;;
2191;SDS011;1102;49.718;11.902;2022-07-30T03:21:48;14.53;;;13.03;;
2191;SDS011;1102;49.718;11.902;2022-07-30T03:24:19;15.43;;;13.83;;
2191;SDS011;1102;49.718;11.902;2022-07-30T03:26:49;13.80;;;12.70;;
2191;SDS011;1102;49.718;11.902;2022-07-30T03:29:17;12.50;;;11.33;;
2191;SDS011;1102;49.718;11.902;2022-07-30T03:31:47;14.13;;;12.83;;
2191;SDS011;1102;49.718;11.902;2022-07-30T03:34:15;14.17;;;12.87;;
2191;SDS011;1102;49.718;11.902;2022-07-30T03:36:43;12.80;;;11.67;;
2191;SDS011;1102;49.718;11.902;2022-07-30T03:39:10;14.13;;;12.90;;
2191;SDS011;1102;49.718;11.902;2022-07-30T03:41:37;13.13;;;11.97;;
2191;SDS011;1102;49.718;11.902;2022-07-30T03:44:09;13.67;;;12.50;;
2191;SDS011;1102;49.718;11.902;2022-07-30T03:46:38;12.73;;;11.67;;
2191;SDS011;1102;49.718;11.902;2022-07-30T03:49:07;12.70;;;11.60;;
2191;SDS011;1102;49.718;11.902;2022-07-30T03:51:39;14.03;;;12.83;;
2191;SDS011;1102;49.718;11.902;2022-07-30T03:54:07;13.80;;;12.57;;
2191;SDS011;1102;49.718;11.902;2022-07-30T03:56:39;12.57;;;11.57;;
2191;SDS011;1102;49.718;11.902;2022-07-30T03:59:12;15.57;;;14.20;;
2191;SDS011;1102;49.718;11.902;2022-07-30T04:01:39;13.17;;;12.07;;
2191;SDS011;1102;49.718;11.902;2022-07-30T04:04:30;13.40;;;12.07;;
2191;SDS011;1102;49.718;11.902;2022-07-30T04:06:57;13.70;;;12.50;;
2191;SDS011;1102;49.718;11.902;2022-07-30T04:09:25;12.57;;;11.47;;
2191;SDS011;1102;49.718;11.902;2022-07-30T04:11:52;12.50;;;11.40;;
2191;SDS011;1102;49.718;11.902;2022-07-30T04:14:23;15.20;;;13.70;;
2191;SDS011;1102;49.718;11.902;2022-07-30T04:16:58;13.20;;;12.10;;
2191;SDS011;1102;49.718;11.902;2022-07-30T04:19:32;13.33;;;12.13;;
2191;SDS011;1102;49.718;11.902;2022-07-30T04:22:03;13.57;;;12.13;;
2191;SDS011;1102;49.718;11.902;2022-07-30T04:24:33;14.30;;;13.00;;
2191;SDS011;1102;49.718;11.902;2022-07-30T04:27:01;13.60;;;12.40;;
2191;SDS011;1102;49.718;11.902;2022-07-30T04:29:30;17.60;;;15.80;;
2191;SDS011;1102;49.718;11.902;2022-07-30T04:31:57;17.27;;;15.63;;
2191;SDS011;1102;49.718;11.902;2022-07-30T04:34:48;18.37;;;16.33;;
2191;SDS011;1102;49.718;11.902;2022-07-30T04:37:26;22.80;;;17.50;;
2191;SDS011;1102;49.718;11.902;2022-07-30T04:39:54;18.67;;;16.80;;
2191;SDS011;1102;49.718;11.902;2022-07-30T04:42:26;19.00;;;17.07;;
2191;SDS011;1102;49.718;11.902;2022-07-30T04:45:01;19.63;;;17.60;;
2191;SDS011;1102;49.718;11.902;2022-07-30T04:47:34;19.73;;;16.77;;
2191;SDS011;1102;49.718;11.902;2022-07-30T04:50:35;19.13;;;17.43;;
2191;SDS011;1102;49.718;11.902;2022-07-30T04:53:08;18.57;;;16.77;;
2191;SDS011;1102;49.718;11.902;2022-07-30T04:55:40;17.27;;;15.57;;
2191;SDS011;1102;49.718;11.902;2022-07-30T04:58:11;17.93;;;16.17;;
2191;SDS011;1102;49.718;11.902;2022-07-30T05:00:40;17.97;;;16.17;;
2191;SDS011;1102;49.718;11.902;2022-07-30T05:03:12;17.57;;;14.93;;
2191;SDS011;1102;49.718;11.902;2022-07-30T05:05:44;17.80;;;16.00;;
2191;SDS011;1102;49.718;11.902;2022-07-30T05:08:13;19.30;;;17.30;;
2191;SDS011;1102;49.718;11.902;2022-07-30T05:10:41;18.87;;;16.97;;
2191;SDS011;1102;49.718;11.902;2022-07-30T05:13:13;17.30;;;15.70;;
2191;SDS011;1102;49.718;11.902;2022-07-30T05:15:41;16.70;;;15.10;;
2191;SDS011;1102;49.718;11.902;2022-07-30T05:18:11;16.63;;;14.67;;
2191;SDS011;1102;49.718;11.902;2022-07-30T05:20:41;17.30;;;15.70;;
2191;SDS011;1102;49.718;11.902;2022-07-30T05:23:18;18.03;;;15.43;;
2191;SDS011;1102;49.718;11.902;2022-07-30T05:26:03;17.57;;;15.87;;
2191;SDS011;1102;49.718;11.902;2022-07-30T05:28:36;16.70;;;15.13;;
2191;SDS011;1102;49.718;11.902;2022-07-30T05:31:06;17.47;;;15.87;;
2191;SDS011;1102;49.718;11.902;2022-07-30T05:33:35;15.30;;;13.73;;
2191;SDS011;1102;49.718;11.902;2022-07-30T05:36:12;15.30;;;13.80;;
2191;SDS011;1102;49.718;11.902;2022-07-30T05:38:39;15.93;;;14.43;;
2191;SDS011;1102;49.718;11.902;2022-07-30T05:41:26;13.37;;;12.07;;
2191;SDS011;1102;49.718;11.902;2022-07-30T05:44:24;14.43;;;13.13;;
2191;SDS011;1102;49.718;11.902;2022-07-30T05:46:51;14.40;;;12.90;;
2191;SDS011;1102;49.718;11.902;2022-07-30T05:49:18;14.83;;;13.43;;
2191;SDS011;1102;49.718;11.902;2022-07-30T05:51:45;13.90;;;12.33;;
2191;SDS011;1102;49.718;11.902;2022-07-30T05:54:12;12.93;;;11.73;;
2191;SDS011;1102;49.718;11.902;2022-07-30T05:56:44;14.70;;;13.30;;
2191;SDS011;1102;49.718;11.902;2022-07-30T05:59:34;14.37;;;12.83;;
2191;SDS011;1102;49.718;11.902;2022-07-30T06:02:19;13.37;;;12.10;;
2191;SDS011;1102;49.718;11.902;2022-07-30T06:05:08;15.77;;;13.20;;
2191;SDS011;1102;49.718;11.902;2022-07-30T06:07:35;14.07;;;12.77;;
2191;SDS011;1102;49.718;11.902;2022-07-30T06:10:04;16.20;;;12.10;;
2191;SDS011;1102;49.718;11.902;2022-07-30T06:12:31;14.60;;;11.90;;
2191;SDS011;1102;49.718;11.902;2022-07-30T06:14:58;13.23;;;11.77;;
2191;SDS011;1102;49.718;11.902;2022-07-30T06:17:32;12.80;;;11.70;;
2191;SDS011;1102;49.718;11.902;2022-07-30T06:20:18;11.57;;;10.17;;
2191;SDS011;1102;49.718;11.902;2022-07-30T06:23:06;12.17;;;11.17;;
2191;SDS011;1102;49.718;11.902;2022-07-30T06:25:48;11.13;;;10.10;;
2191;SDS011;1102;49.718;11.902;2022-07-30T06:28:16;11.70;;;10.60;;
2191;SDS011;1102;49.718;11.902;2022-07-30T06:31:12;9.83;;;9.07;;
2191;SDS011;1102;49.718;11.902;2022-07-30T06:33:40;10.73;;;9.80;;
2191;SDS011;1102;49.718;11.902;2022-07-30T06:36:08;10.30;;;8.23;;
2191;SDS011;1102;49.718;11.902;2022-07-30T06:38:59;10.30;;;9.40;;
2191;SDS011;1102;49.718;11.902;2022-07-30T06:41:49;8.80;;;7.73;;
2191;SDS011;1102;49.718;11.902;2022-07-30T06:44:16;10.30;;;9.40;;
2191;SDS011;1102;49.718;11.902;2022-07-30T06:46:45;9.90;;;9.07;;
2191;SDS011;1102;49.718;11.902;2022-07-30T06:49:12;9.10;;;8.30;;
2191;SDS011;1102;49.718;11.902;2022-07-30T06:51:39;9.97;;;8.97;;
2191;SDS011;1102;49.718;11.902;2022-07-30T06:54:06;9.20;;;8.40;;
2191;SDS011;1102;49.718;11.902;2022-07-30T06:56:32;9.80;;;8.77;;
2191;SDS011;1102;49.718;11.902;2022-07-30T06:59:02;9.73;;;8.37;;
2191;SDS011;1102;49.718;11.902;2022-07-30T07:01:41;10.67;;;9.77;;
2191;SDS011;1102;49.718;11.902;2022-07-30T07:04:08;7.53;;;6.90;;
2191;SDS011;1102;49.718;11.902;2022-07-30T07:06:37;8.67;;;8.07;;
2191;SDS011;1102;49.718;11.902;2022-07-30T07:09:05;8.20;;;7.40;;
2191;SDS011;1102;49.718;11.902;2022-07-30T07:11:45;8.27;;;7.67;;
2191;SDS011;1102;49.718;11.902;2022-07-30T07:14:16;8.90;;;8.10;;
2191;SDS011;1102;49.718;11.902;2022-07-30T07:16:43;8.20;;;7.50;;
2191;SDS011;1102;49.718;11.902;2022-07-30T07:19:46;8.83;;;8.13;;
2191;SDS011;1102;49.718;11.902;2022-07-30T07:22:31;8.47;;;7.77;;
2191;SDS011;1102;49.718;11.902;2022-07-30T07:24:58;8.90;;;8.17;;
2191;SDS011;1102;49.718;11.902;2022-07-30T07:27:28;7.93;;;7.17;;
2191;SDS011;1102;49.718;11.902;2022-07-30T07:29:58;8.10;;;7.50;;
2191;SDS011;1102;49.718;11.902;2022-07-30T07:32:32;9.50;;;8.60;;
2191;SDS011;1102;49.718;11.902;2022-07-30T07:35:00;8.20;;;7.50;;
2191;SDS011;1102;49.718;11.902;2022-07-30T07:37:27;8.47;;;7.77;;
2191;SDS011;1102;49.718;11.902;2022-07-30T07:39:54;8.43;;;7.77;;
2191;SDS011;1102;49.718;11.902;2022-07-30T07:42:21;7.87;;;7.17;;
2191;SDS011;1102;49.718;11.902;2022-07-30T07:44:49;8.93;;;7.93;;
2191;SDS011;1102;49.718;11.902;2022-07-30T07:47:17;7.70;;;7.10;;
2191;SDS011;1102;49.718;11.902;2022-07-30T07:49:57;7.07;;;6.47;;
2191;SDS011;1102;49.718;11.902;2022-07-30T07:52:24;8.07;;;7.20;;
2191;SDS011;1102;49.718;11.902;2022-07-30T07:54:50;8.67;;;7.83;;
2191;SDS011;1102;49.718;11.902;2022-07-30T07:57:17;7.53;;;7.00;;
2191;SDS011;1102;49.718;11.902;2022-07-30T07:59:46;6.90;;;6.20;;
2191;SDS011;1102;49.718;11.902;2022-07-30T08:02:21;7.03;;;6.30;;
2191;SDS011;1102;49.718;11.902;2022-07-30T08:05:03;7.33;;;6.83;;
2191;SDS011;1102;49.718;11.902;2022-07-30T08:07:47;6.17;;;5.67;;
2191;SDS011;1102;49.718;11.902;2022-07-30T08:10:32;6.63;;;6.13;;
2191;SDS011;1102;49.718;11.902;2022-07-30T08:13:17;7.37;;;6.77;;
2191;SDS011;1102;49.718;11.902;2022-07-30T08:16:23;7.10;;;6.57;;
2191;SDS011;1102;49.718;11.902;2022-07-30T08:19:12;7.30;;;6.70;;
2191;SDS011;1102;49.718;11.902;2022-07-30T08:21:45;6.37;;;5.87;;
2191;SDS011;1102;49.718;11.902;2022-07-30T08:24:15;6.53;;;6.00;;
2191;SDS011;1102;49.718;11.902;2022-07-30T08:26:42;6.47;;;5.97;;
2191;SDS011;1102;49.718;11.902;2022-07-30T08:29:09;5.60;;;5.07;;
2191;SDS011;1102;49.718;11.902;2022-07-30T08:31:42;5.10;;;4.60;;
2191;SDS011;1102;49.718;11.902;2022-07-30T08:34:09;7.07;;;5.97;;
2191;SDS011;1102;49.718;11.902;2022-07-30T08:36:37;6.00;;;5.50;;
2191;SDS011;1102;49.718;11.902;2022-07-30T08:39:04;5.70;;;5.30;;
2191;SDS011;1102;49.718;11.902;2022-07-30T08:41:31;6.20;;;5.70;;
2191;SDS011;1102;49.718;11.902;2022-07-30T08:43:59;5.30;;;4.90;;
2191;SDS011;1102;49.718;11.902;2022-07-30T08:46:28;5.93;;;5.43;;
2191;SDS011;1102;49.718;11.902;2022-07-30T08:49:04;6.07;;;5.00;;
2191;SDS011;1102;49.718;11.902;2022-07-30T08:51:37;5.87;;;5.30;;
2191;SDS011;1102;49.718;11.902;2022-07-30T08:54:35;6.10;;;5.50;;
2191;SDS011;1102;49.718;11.902;2022-07-30T08:57:02;5.97;;;5.50;;
2191;SDS011;1102;49.718;11.902;2022-07-30T08:59:30;6.03;;;5.60;;
2191;SDS011;1102;49.718;11.902;2022-07-30T09:02:18;7.33;;;6.73;;
2191;SDS011;1102;49.718;11.902;2022-07-30T09:05:02;5.67;;;5.27;;
2191;SDS011;1102;49.718;11.902;2022-07-30T09:07:31;6.87;;;5.43;;
2191;SDS011;1102;49.718;11.902;2022-07-30T09:10:00;7.23;;;5.50;;
2191;SDS011;1102;49.718;11.902;2022-07-30T09:12:33;5.87;;;5.27;;
2191;SDS011;1102;49.718;11.902;2022-07-30T09:15:12;6.07;;;5.40;;
2191;SDS011;1102;49.718;11.902;2022-07-30T09:17:54;6.27;;;5.80;;
2191;SDS011;1102;49.718;11.902;2022-07-30T09:20:24;6.20;;;5.80;;
2191;SDS011;1102;49.718;11.902;2022-07-30T09:22:53;10.20;;;5.97;;
2191;SDS011;1102;49.718;11.902;2022-07-30T09:25:45;6.60;;;5.93;;
2191;SDS011;1102;49.718;11.902;2022-07-30T09:28:32;5.77;;;5.37;;
2191;SDS011;1102;49.718;11.902;2022-07-30T09:31:12;5.27;;;4.87;;
2191;SDS011;1102;49.718;11.902;2022-07-30T09:33:57;4.70;;;4.33;;
2191;SDS011;1102;49.718;11.902;2022-07-30T09:36:43;5.50;;;5.00;;
2191;SDS011;1102;49.718;11.902;2022-07-30T09:39:35;5.43;;;5.03;;
2191;SDS011;1102;49.718;11.902;2022-07-30T09:44:49;5.10;;;4.70;;
2191;SDS011;1102;49.718;11.902;2022-07-30T09:47:29;5.50;;;5.00;;
2191;SDS011;1102;49.718;11.902;2022-07-30T09:50:04;5.93;;;5.33;;
2191;SDS011;1102;49.718;11.902;2022-07-30T09:52:33;5.20;;;4.77;;
2191;SDS011;1102;49.718;11.902;2022-07-30T09:55:10;5.47;;;5.00;;
2191;SDS011;1102;49.718;11.902;2022-07-30T09:57:53;6.87;;;6.10;;
2191;SDS011;1102;49.718;11.902;2022-07-30T10:00:26;5.40;;;4.90;;
2191;SDS011;1102;49.718;11.902;2022-07-30T10:03:27;5.40;;;5.00;;
2191;SDS011;1102;49.718;11.902;2022-07-30T10:06:31;5.07;;;4.77;;
2191;SDS011;1102;49.718;11.902;2022-07-30T10:09:29;7.17;;;5.30;;
2191;SDS011;1102;49.718;11.902;2022-07-30T10:12:04;5.27;;;4.87;;
2191;SDS011;1102;49.718;11.902;2022-07-30T10:14:38;4.83;;;4.33;;
2191;SDS011;1102;49.718;11.902;2022-07-30T10:17:11;6.57;;;5.80;;
2191;SDS011;1102;49.718;11.902;2022-07-30T10:19:44;6.30;;;4.80;;
2191;SDS011;1102;49.718;11.902;2022-07-30T10:22:46;5.73;;;5.20;;
2191;SDS011;1102;49.718;11.902;2022-07-30T10:25:19;5.00;;;4.70;;
2191;SDS011;1102;49.718;11.902;2022-07-30T10:28:22;5.70;;;5.30;;
2191;SDS011;1102;49.718;11.902;2022-07-30T10:30:51;4.70;;;4.40;;
2191;SDS011;1102;49.718;11.902;2022-07-30T10:33:23;6.63;;;6.03;;
2191;SDS011;1102;49.718;11.902;2022-07-30T10:36:02;5.80;;;5.30;;
2191;SDS011;1102;49.718;11.902;2022-07-30T10:38:30;5.80;;;5.40;;
2191;SDS011;1102;49.718;11.902;2022-07-30T10:43:42;5.17;;;4.30;;
2191;SDS011;1102;49.718;11.902;2022-07-30T10:49:09;4.90;;;4.50;;
2191;SDS011;1102;49.718;11.902;2022-07-30T10:51:53;5.87;;;5.30;;
2191;SDS011;1102;49.718;11.902;2022-07-30T11:02:27;5.47;;;4.93;;
2191;SDS011;1102;49.718;11.902;2022-07-30T11:14:42;4.57;;;4.17;;
2191;SDS011;1102;49.718;11.902;2022-07-30T11:17:13;3.97;;;3.67;;
2191;SDS011;1102;49.718;11.902;2022-07-30T11:22:44;3.90;;;3.53;;
2191;SDS011;1102;49.718;11.902;2022-07-30T11:31:25;3.10;;;2.90;;
2191;SDS011;1102;49.718;11.902;2022-07-30T11:42:24;3.37;;;3.17;;
2191;SDS011;1102;49.718;11.902;2022-07-30T11:47:44;4.03;;;3.43;;
2191;SDS011;1102;49.718;11.902;2022-07-30T11:50:26;3.50;;;3.20;;
2191;SDS011;1102;49.718;11.902;2022-07-30T11:52:59;3.93;;;3.70;;
2191;SDS011;1102;49.718;11.902;2022-07-30T11:55:32;4.30;;;4.00;;
2191;SDS011;1102;49.718;11.902;2022-07-30T11:58:03;3.90;;;3.60;;
2191;SDS011;1102;49.718;11.902;2022-07-30T12:00:39;4.77;;;4.37;;
2191;SDS011;1102;49.718;11.902;2022-07-30T12:03:07;4.37;;;4.07;;
2191;SDS011;1102;49.718;11.902;2022-07-30T12:05:36;3.77;;;3.47;;
2191;SDS011;1102;49.718;11.902;2022-07-30T12:08:03;4.10;;;3.80;;
2191;SDS011;1102;49.718;11.902;2022-07-30T12:10:31;3.80;;;3.20;;
2191;SDS011;1102;49.718;11.902;2022-07-30T12:13:16;4.27;;;3.83;;
2191;SDS011;1102;49.718;11.902;2022-07-30T12:15:43;4.27;;;3.97;;
2191;SDS011;1102;49.718;11.902;2022-07-30T12:18:12;3.80;;;3.50;;
2191;SDS011;1102;49.718;11.902;2022-07-30T12:20:52;4.40;;;4.00;;
2191;SDS011;1102;49.718;11.902;2022-07-30T12:23:22;3.70;;;3.40;;
2191;SDS011;1102;49.718;11.902;2022-07-30T12:25:50;3.53;;;3.10;;
2191;SDS011;1102;49.718;11.902;2022-07-30T12:28:24;8.13;;;3.23;;
2191;SDS011;1102;49.718;11.902;2022-07-30T12:30:53;3.87;;;3.57;;
2191;SDS011;1102;49.718;11.902;2022-07-30T12:33:21;3.77;;;3.47;;
2191;SDS011;1102;49.718;11.902;2022-07-30T12:35:50;3.80;;;3.50;;
2191;SDS011;1102;49.718;11.902;2022-07-30T12:38:18;3.37;;;3.07;;
2191;SDS011;1102;49.718;11.902;2022-07-30T12:51:20;3.00;;;2.80;;
2191;SDS011;1102;49.718;11.902;2022-07-30T12:53:49;8.80;;;3.30;;
2191;SDS011;1102;49.718;11.902;2022-07-30T12:56:19;11.93;;;3.40;;
2191;SDS011;1102;49.718;11.902;2022-07-30T12:58:47;4.00;;;2.97;;
2191;SDS011;1102;49.718;11.902;2022-07-30T13:01:16;3.50;;;3.30;;
2191;SDS011;1102;49.718;11.902;2022-07-30T13:03:43;3.10;;;2.90;;
2191;SDS011;1102;49.718;11.902;2022-07-30T13:11:24;2.77;;;2.57;;
2191;SDS011;1102;49.718;11.902;2022-07-30T13:14:02;2.83;;;2.63;;
2191;SDS011;1102;49.718;11.902;2022-07-30T13:16:30;2.50;;;2.30;;
2191;SDS011;1102;49.718;11.902;2022-07-30T13:18:58;2.90;;;2.70;;
2191;SDS011;1102;49.718;11.902;2022-07-30T13:21:25;2.40;;;2.20;;
2191;SDS011;1102;49.718;11.902;2022-07-30T13:23:51;3.10;;;2.90;;
2191;SDS011;1102;49.718;11.902;2022-07-30T13:26:18;3.20;;;2.90;;
2191;SDS011;1102;49.718;11.902;2022-07-30T13:28:45;2.77;;;2.57;;
2191;SDS011;1102;49.718;11.902;2022-07-30T13:31:11;3.30;;;3.10;;
2191;SDS011;1102;49.718;11.902;2022-07-30T13:33:38;2.93;;;2.73;;
2191;SDS011;1102;49.718;11.902;2022-07-30T13:36:05;4.53;;;3.00;;
2191;SDS011;1102;49.718;11.902;2022-07-30T13:38:32;3.20;;;2.57;;
2191;SDS011;1102;49.718;11.902;2022-07-30T13:40:59;3.20;;;2.90;;
2191;SDS011;1102;49.718;11.902;2022-07-30T13:43:28;2.07;;;1.97;;
2191;SDS011;1102;49.718;11.902;2022-07-30T13:45:59;3.57;;;2.43;;
2191;SDS011;1102;49.718;11.902;2022-07-30T13:48:28;7.43;;;2.90;;
2191;SDS011;1102;49.718;11.902;2022-07-30T13:50:55;3.97;;;2.33;;
2191;SDS011;1102;49.718;11.902;2022-07-30T13:53:22;5.17;;;3.07;;
2191;SDS011;1102;49.718;11.902;2022-07-30T13:55:48;5.43;;;3.27;;
2191;SDS011;1102;49.718;11.902;2022-07-30T13:58:15;3.63;;;3.10;;
2191;SDS011;1102;49.718;11.902;2022-07-30T14:00:42;4.63;;;3.30;;
2191;SDS011;1102;49.718;11.902;2022-07-30T14:03:10;4.37;;;2.97;;
2191;SDS011;1102;49.718;11.902;2022-07-30T14:05:37;3.17;;;2.97;;
2191;SDS011;1102;49.718;11.902;2022-07-30T14:08:08;3.33;;;3.13;;
2191;SDS011;1102;49.718;11.902;2022-07-30T14:10:36;5.10;;;3.87;;
2191;SDS011;1102;49.718;11.902;2022-07-30T14:13:05;3.87;;;3.57;;
2191;SDS011;1102;49.718;11.902;2022-07-30T14:15:33;4.90;;;4.50;;
2191;SDS011;1102;49.718;11.902;2022-07-30T14:18:00;6.70;;;4.20;;
2191;SDS011;1102;49.718;11.902;2022-07-30T14:20:27;7.57;;;5.00;;
2191;SDS011;1102;49.718;11.902;2022-07-30T14:22:54;4.70;;;4.40;;
2191;SDS011;1102;49.718;11.902;2022-07-30T14:25:22;4.20;;;3.90;;
2191;SDS011;1102;49.718;11.902;2022-07-30T14:27:49;3.97;;;3.70;;
2191;SDS011;1102;49.718;11.902;2022-07-30T14:30:16;3.53;;;3.33;;
2191;SDS011;1102;49.718;11.902;2022-07-30T14:32:43;3.83;;;3.53;;
2191;SDS011;1102;49.718;11.902;2022-07-30T14:35:10;4.23;;;3.77;;
2191;SDS011;1102;49.718;11.902;2022-07-30T14:37:37;5.90;;;3.77;;
2191;SDS011;1102;49.718;11.902;2022-07-30T14:40:06;5.43;;;3.87;;
2191;SDS011;1102;49.718;11.902;2022-07-30T14:42:35;4.20;;;3.90;;
2191;SDS011;1102;49.718;11.902;2022-07-30T14:45:02;5.03;;;4.20;;
2191;SDS011;1102;49.718;11.902;2022-07-30T14:47:35;4.80;;;4.40;;
2191;SDS011;1102;49.718;11.902;2022-07-30T14:50:04;4.00;;;3.70;;
2191;SDS011;1102;49.718;11.902;2022-07-30T14:52:37;5.20;;;4.70;;
2191;SDS011;1102;49.718;11.902;2022-07-30T14:55:05;5.47;;;4.20;;
2191;SDS011;1102;49.718;11.902;2022-07-30T14:57:33;4.53;;;4.17;;
2191;SDS011;1102;49.718;11.902;2022-07-30T15:00:00;5.00;;;4.17;;
2191;SDS011;1102;49.718;11.902;2022-07-30T15:02:27;4.93;;;4.47;;
2191;SDS011;1102;49.718;11.902;2022-07-30T15:04:54;4.53;;;4.13;;
2191;SDS011;1102;49.718;11.902;2022-07-30T15:07:20;4.40;;;4.00;;
2191;SDS011;1102;49.718;11.902;2022-07-30T15:09:47;4.60;;;4.27;;
2191;SDS011;1102;49.718;11.902;2022-07-30T15:12:14;5.50;;;3.30;;
2191;SDS011;1102;49.718;11.902;2022-07-30T15:14:51;4.97;;;4.47;;
2191;SDS011;1102;49.718;11.902;2022-07-30T15:17:21;5.83;;;4.17;;
2191;SDS011;1102;49.718;11.902;2022-07-30T15:19:48;4.13;;;3.93;;
2191;SDS011;1102;49.718;11.902;2022-07-30T15:22:19;5.20;;;3.93;;
2191;SDS011;1102;49.718;11.902;2022-07-30T15:24:46;4.07;;;3.77;;
2191;SDS011;1102;49.718;11.902;2022-07-30T15:27:14;4.50;;;4.17;;
2191;SDS011;1102;49.718;11.902;2022-07-30T15:29:43;6.30;;;3.30;;
2191;SDS011;1102;49.718;11.902;2022-07-30T15:32:10;3.80;;;3.40;;
2191;SDS011;1102;49.718;11.902;2022-07-30T15:34:37;7.13;;;3.70;;
2191;SDS011;1102;49.718;11.902;2022-07-30T15:37:04;7.00;;;4.27;;
2191;SDS011;1102;49.718;11.902;2022-07-30T15:39:31;4.10;;;3.77;;
2191;SDS011;1102;49.718;11.902;2022-07-30T15:41:59;4.30;;;3.97;;
2191;SDS011;1102;49.718;11.902;2022-07-30T15:44:28;3.73;;;3.40;;
2191;SDS011;1102;49.718;11.902;2022-07-30T15:46:55;4.13;;;3.83;;
2191;SDS011;1102;49.718;11.902;2022-07-30T15:49:22;4.20;;;3.60;;
2191;SDS011;1102;49.718;11.902;2022-07-30T15:51:49;5.17;;;4.10;;
2191;SDS011;1102;49.718;11.902;2022-07-30T15:54:18;5.00;;;3.90;;
2191;SDS011;1102;49.718;11.902;2022-07-30T15:56:48;3.93;;;3.63;;
2191;SDS011;1102;49.718;11.902;2022-07-30T15:59:19;3.97;;;3.63;;
2191;SDS011;1102;49.718;11.902;2022-07-30T16:01:46;4.33;;;4.00;;
2191;SDS011;1102;49.718;11.902;2022-07-30T16:04:13;3.90;;;3.70;;
2191;SDS011;1102;49.718;11.902;2022-07-30T16:06:46;4.67;;;4.10;;
2191;SDS011;1102;49.718;11.902;2022-07-30T16:09:14;3.90;;;3.50;;
2191;SDS011;1102;49.718;11.902;2022-07-30T16:11:41;4.07;;;3.77;;
2191;SDS011;1102;49.718;11.902;2022-07-30T16:14:08;4.63;;;4.23;;
2191;SDS011;1102;49.718;11.902;2022-07-30T16:16:35;4.97;;;4.63;;
2191;SDS011;1102;49.718;11.902;2022-07-30T16:19:02;4.50;;;4.20;;
2191;SDS011;1102;49.718;11.902;2022-07-30T16:21:29;4.67;;;4.27;;
2191;SDS011;1102;49.718;11.902;2022-07-30T16:23:56;4.83;;;4.47;;
2191;SDS011;1102;49.718;11.902;2022-07-30T16:26:22;5.00;;;4.60;;
2191;SDS011;1102;49.718;11.902;2022-07-30T16:28:49;5.27;;;4.77;;